createdAt,value
2023-02-13T00:01:01.194Z,84.02
2023-02-13T00:03:42.906Z,84.04
2023-02-13T00:06:10.042Z,83.84
2023-02-13T00:08:42.866Z,83.77
2023-02-13T00:11:09.842Z,84.05
2023-02-13T00:13:42.942Z,84.12
2023-02-13T00:16:16.992Z,84.19
2023-02-13T00:18:43.694Z,84.01
2023-02-13T00:21:20.877Z,84.04
2023-02-13T00:23:54.892Z,84.33
2023-02-13T00:26:31.059Z,84.13
2023-02-13T00:28:58.314Z,84.30
2023-02-13T00:34:12.711Z,84.32
2023-02-13T00:36:50.391Z,84.17
2023-02-13T00:39:16.986Z,84.31
2023-02-13T00:42:01.862Z,84.59
2023-02-13T00:44:37.522Z,84.27
2023-02-13T00:47:13.854Z,84.26
2023-02-13T00:50:01.878Z,84.36
2023-02-13T00:52:48.948Z,84.32
2023-02-13T00:55:24.927Z,84.32
2023-02-13T00:57:58.909Z,84.19
2023-02-13T01:00:25.769Z,84.14
2023-02-13T01:05:47.700Z,84.35
2023-02-13T01:08:28.110Z,84.67
2023-02-13T01:10:55.949Z,84.47
2023-02-13T01:13:29.807Z,84.78
2023-02-13T01:15:56.524Z,84.77
2023-02-13T01:18:23.346Z,84.54
2023-02-13T01:21:15.988Z,84.48
2023-02-13T01:23:48.599Z,84.58
2023-02-13T01:26:27.870Z,84.81
2023-02-13T01:28:55.278Z,84.83
2023-02-13T01:31:30.133Z,84.62
2023-02-13T01:34:01.001Z,84.85
2023-02-13T01:36:40.159Z,84.62
2023-02-13T01:39:06.842Z,84.79
2023-02-13T01:41:44.812Z,84.90
2023-02-13T01:44:48.996Z,84.59
2023-02-13T01:47:28.903Z,84.81
2023-02-13T01:50:55.261Z,84.37
2023-02-13T01:53:37.878Z,84.67
2023-02-13T01:56:40.929Z,84.67
2023-02-13T01:59:25.905Z,84.72
2023-02-13T02:01:54.051Z,84.39
2023-02-13T02:04:33.025Z,84.32
2023-02-13T02:07:08.646Z,84.48
2023-02-13T02:09:45.868Z,84.33
2023-02-13T02:12:38.581Z,84.41
2023-02-13T02:15:13.173Z,84.31
2023-02-13T02:17:50.496Z,84.37
2023-02-13T02:21:04.991Z,84.35
2023-02-13T02:23:50.501Z,83.93
2023-02-13T02:26:43.849Z,84.09
2023-02-13T02:29:44.955Z,84.26
2023-02-13T02:32:39.885Z,84.13
2023-02-13T02:35:32.855Z,84.36
2023-02-13T02:38:20.963Z,84.16
2023-02-13T02:41:04.903Z,84.22
2023-02-13T02:43:52.947Z,84.36
2023-02-13T02:46:38.854Z,84.18
2023-02-13T02:49:45.930Z,84.12
2023-02-13T02:52:25.244Z,84.07
2023-02-13T02:55:16.582Z,84.32
2023-02-13T02:58:14.952Z,83.97
2023-02-13T03:01:09.107Z,83.98
2023-02-13T03:04:06.942Z,84.09
2023-02-13T03:07:19.430Z,83.95
2023-02-13T03:10:19.916Z,83.96
2023-02-13T03:13:22.327Z,84.08
2023-02-13T03:19:17.275Z,84.07
2023-02-13T03:22:25.542Z,84.14
2023-02-13T03:25:00.841Z,84.00
2023-02-13T03:28:00.961Z,83.95
2023-02-13T03:30:39.793Z,83.94
2023-02-13T03:33:49.920Z,84.02
2023-02-13T03:37:31.019Z,84.15
2023-02-13T03:40:33.818Z,84.10
2023-02-13T03:43:23.905Z,84.58
2023-02-13T03:45:55.898Z,84.37
2023-02-13T03:49:14.001Z,84.32
2023-02-13T03:52:02.024Z,84.42
2023-02-13T03:55:04.139Z,84.47
2023-02-13T03:57:51.971Z,84.34
2023-02-13T04:00:27.921Z,84.73
2023-02-13T04:06:40.861Z,84.70
2023-02-13T04:09:13.761Z,84.72
2023-02-13T04:11:56.102Z,84.80
2023-02-13T04:14:28.421Z,84.76
2023-02-13T04:17:49.879Z,84.66
2023-02-13T04:20:33.146Z,85.02
2023-02-13T04:23:12.876Z,84.86
2023-02-13T04:25:42.027Z,85.10
2023-02-13T04:28:22.519Z,85.01
2023-02-13T04:30:50.205Z,84.97
2023-02-13T04:33:25.229Z,85.33
2023-02-13T04:35:58.965Z,85.32
2023-02-13T04:38:31.960Z,85.12
2023-02-13T04:41:06.346Z,85.40
2023-02-13T04:43:39.017Z,85.40
2023-02-13T04:46:12.000Z,85.42
2023-02-13T04:48:45.028Z,85.25
2023-02-13T04:51:18.313Z,85.62
2023-02-13T04:53:55.479Z,85.46
2023-02-13T04:56:22.089Z,85.58
2023-02-13T04:58:58.091Z,85.76
2023-02-13T05:01:28.615Z,85.63
2023-02-13T05:04:02.074Z,85.89
2023-02-13T05:06:55.139Z,85.54
2023-02-13T05:09:28.010Z,85.56
2023-02-13T05:11:54.819Z,85.81
2023-02-13T05:14:28.029Z,85.79
2023-02-13T05:16:54.859Z,85.87
2023-02-13T05:19:21.466Z,85.98
2023-02-13T05:22:13.044Z,85.91
2023-02-13T05:24:43.638Z,85.96
2023-02-13T05:27:19.983Z,85.80
2023-02-13T05:29:46.563Z,85.86
2023-02-13T05:32:32.145Z,85.94
2023-02-13T05:34:58.753Z,86.10
2023-02-13T05:37:31.939Z,86.12
2023-02-13T05:39:59.963Z,86.19
2023-02-13T05:42:41.977Z,86.24
2023-02-13T05:45:10.058Z,85.99
2023-02-13T05:47:44.098Z,86.12
2023-02-13T05:50:21.943Z,85.98
2023-02-13T05:53:03.377Z,86.41
2023-02-13T05:55:38.111Z,86.48
2023-02-13T05:58:17.332Z,86.50
2023-02-13T06:00:43.979Z,86.49
2023-02-13T06:03:17.135Z,86.49
2023-02-13T06:05:54.094Z,86.37
2023-02-13T06:08:21.883Z,86.44
2023-02-13T06:10:56.057Z,86.45
2023-02-13T06:13:25.774Z,86.62
2023-02-13T06:16:02.049Z,86.75
2023-02-13T06:18:31.018Z,86.66
2023-02-13T06:21:08.042Z,86.51
2023-02-13T06:23:35.186Z,86.72
2023-02-13T06:26:21.041Z,86.56
2023-02-13T06:28:50.698Z,86.64
2023-02-13T06:31:24.118Z,86.48
2023-02-13T06:33:50.958Z,86.70
2023-02-13T06:36:27.002Z,86.81
2023-02-13T06:38:53.702Z,86.64
2023-02-13T06:41:27.090Z,86.70
2023-02-13T06:43:53.791Z,86.65
2023-02-13T06:46:29.838Z,86.64
2023-02-13T06:48:56.527Z,86.73
2023-02-13T06:51:50.337Z,86.93
2023-02-13T06:54:33.915Z,86.90
2023-02-13T06:57:15.837Z,87.24
2023-02-13T06:59:49.991Z,87.12
2023-02-13T07:02:16.648Z,87.27
2023-02-13T07:04:52.060Z,87.48
2023-02-13T07:07:18.721Z,87.03
2023-02-13T07:09:52.031Z,87.13
2023-02-13T07:12:27.442Z,87.07
2023-02-13T07:15:02.784Z,87.03
2023-02-13T07:17:39.188Z,87.03
2023-02-13T07:20:13.237Z,87.23
2023-02-13T07:22:39.890Z,86.96
2023-02-13T07:25:14.127Z,87.36
2023-02-13T07:27:47.049Z,87.15
2023-02-13T07:30:18.921Z,87.38
2023-02-13T07:32:55.002Z,87.19
2023-02-13T07:35:22.017Z,87.30
2023-02-13T07:37:55.034Z,87.43
2023-02-13T07:40:24.753Z,87.29
2023-02-13T07:42:58.187Z,87.32
2023-02-13T07:45:25.251Z,87.11
2023-02-13T07:47:58.009Z,87.21
2023-02-13T07:50:34.236Z,87.26
2023-02-13T07:53:14.052Z,87.58
2023-02-13T07:55:53.579Z,87.30
2023-02-13T07:58:33.077Z,87.21
2023-02-13T08:01:08.034Z,87.14
2023-02-13T08:03:44.068Z,87.33
2023-02-13T08:06:13.752Z,87.02
2023-02-13T08:08:56.167Z,87.04
2023-02-13T08:11:57.795Z,87.12
2023-02-13T08:14:33.283Z,87.19
2023-02-13T08:17:01.641Z,87.10
2023-02-13T08:19:28.809Z,87.01
2023-02-13T08:22:02.311Z,86.90
2023-02-13T08:24:35.075Z,87.07
2023-02-13T08:27:01.922Z,86.57
2023-02-13T08:29:28.658Z,86.76
2023-02-13T08:32:02.189Z,86.35
2023-02-13T08:34:29.101Z,86.45
2023-02-13T08:37:02.087Z,86.23
2023-02-13T08:39:31.219Z,85.73
2023-02-13T08:42:09.751Z,85.43
2023-02-13T08:44:37.521Z,85.40
2023-02-13T08:47:40.095Z,85.28
2023-02-13T08:50:25.888Z,85.22
2023-02-13T08:53:06.098Z,84.91
2023-02-13T08:55:32.848Z,84.89
2023-02-13T08:58:12.117Z,84.49
2023-02-13T09:00:39.108Z,84.32
2023-02-13T09:03:23.034Z,84.45
2023-02-13T09:05:49.869Z,83.88
2023-02-13T09:08:23.102Z,83.54
2023-02-13T09:11:00.866Z,83.45
2023-02-13T09:13:54.020Z,83.33
2023-02-13T09:16:41.705Z,83.41
2023-02-13T09:19:15.056Z,83.28
2023-02-13T09:21:47.872Z,83.03
2023-02-13T09:24:30.222Z,82.73
2023-02-13T09:27:18.241Z,82.56
2023-02-13T09:29:45.223Z,82.24
2023-02-13T09:32:21.074Z,82.14
2023-02-13T09:35:18.244Z,81.95
2023-02-13T09:38:00.236Z,81.75
2023-02-13T09:40:35.673Z,81.30
2023-02-13T09:46:21.121Z,81.06
2023-02-13T09:48:57.270Z,80.04
2023-02-13T09:51:54.330Z,79.96
2023-02-13T09:54:32.114Z,79.50
2023-02-13T09:57:03.183Z,79.22
2023-02-13T09:59:55.073Z,79.48
2023-02-13T10:05:59.670Z,78.94
2023-02-13T10:08:47.133Z,77.38
2023-02-13T10:11:53.536Z,77.44
2023-02-13T10:15:01.094Z,76.92
2023-02-13T10:17:52.343Z,77.21
2023-02-13T10:20:50.083Z,75.79
2023-02-13T10:23:32.981Z,76.09
2023-02-13T10:26:27.173Z,76.15
2023-02-13T10:29:30.153Z,76.34
2023-02-13T10:32:07.239Z,76.07
2023-02-13T10:34:47.575Z,75.69
2023-02-13T10:37:29.859Z,75.14
2023-02-13T10:39:56.982Z,75.02
2023-02-13T10:42:47.274Z,75.49
2023-02-13T10:45:39.743Z,75.31
2023-02-13T10:48:26.232Z,74.99
2023-02-13T10:51:13.150Z,74.48
2023-02-13T10:53:59.199Z,73.97
2023-02-13T10:56:54.232Z,74.20
2023-02-13T10:59:38.158Z,74.30
2023-02-13T11:05:40.013Z,73.85
2023-02-13T11:08:28.289Z,73.51
2023-02-13T11:10:58.399Z,73.88
2023-02-13T11:13:37.114Z,73.82
2023-02-13T11:16:03.944Z,73.74
2023-02-13T11:18:43.254Z,73.59
2023-02-13T11:21:23.702Z,73.23
2023-02-13T11:23:59.073Z,73.37
2023-02-13T11:26:29.430Z,72.54
2023-02-13T11:29:13.274Z,71.30
2023-02-13T11:31:46.437Z,71.56
2023-02-13T11:34:29.233Z,71.83
2023-02-13T11:37:29.566Z,72.12
2023-02-13T11:40:06.137Z,71.67
2023-02-13T11:42:37.901Z,71.47
2023-02-13T11:45:28.815Z,71.48
2023-02-13T11:48:05.264Z,71.19
2023-02-13T11:50:47.221Z,69.93
2023-02-13T11:53:40.942Z,69.79
2023-02-13T11:56:30.414Z,69.91
2023-02-13T11:59:13.140Z,69.28
2023-02-13T12:01:46.186Z,69.58
2023-02-13T12:04:49.197Z,69.92
2023-02-13T12:07:32.460Z,69.95
2023-02-13T12:10:35.168Z,70.28
2023-02-13T12:13:21.627Z,69.34
2023-02-13T12:16:13.841Z,69.47
2023-02-13T12:18:45.196Z,65.42
2023-02-13T12:21:59.347Z,67.03
2023-02-13T12:25:20.524Z,65.06
2023-02-13T12:28:07.603Z,62.96
2023-02-13T12:31:07.275Z,63.42
2023-02-13T12:34:33.229Z,65.22
2023-02-13T12:37:56.718Z,63.53
2023-02-13T12:40:49.158Z,64.18
2023-02-13T12:43:25.307Z,63.01
2023-02-13T12:46:26.554Z,62.60
2023-02-13T12:49:24.468Z,61.05
2023-02-13T12:52:12.159Z,61.12
2023-02-13T12:54:54.366Z,60.10
2023-02-13T12:57:27.242Z,58.94
2023-02-13T13:00:18.448Z,60.51
2023-02-13T13:03:30.286Z,58.48
2023-02-13T13:06:19.901Z,56.15
2023-02-13T13:09:12.461Z,58.82
2023-02-13T13:12:22.508Z,57.58
2023-02-13T13:15:19.464Z,58.14
2023-02-13T13:18:02.009Z,57.84
2023-02-13T13:20:50.409Z,57.01
2023-02-13T13:23:56.241Z,59.51
2023-02-13T13:26:50.195Z,57.20
2023-02-13T13:29:25.282Z,55.72
2023-02-13T13:32:14.972Z,54.80
2023-02-13T13:34:41.817Z,54.79
2023-02-13T13:37:35.147Z,54.22
2023-02-13T13:40:32.372Z,54.09
2023-02-13T13:43:13.171Z,54.34
2023-02-13T13:46:15.340Z,55.18
2023-02-13T13:48:55.749Z,53.86
2023-02-13T13:51:29.313Z,53.66
2023-02-13T13:54:06.490Z,54.32
2023-02-13T13:57:14.389Z,53.77
2023-02-13T13:59:50.317Z,53.19
2023-02-13T14:02:45.170Z,53.59
2023-02-13T14:05:30.342Z,52.55
2023-02-13T14:08:03.614Z,54.17
2023-02-13T14:10:37.593Z,54.05
2023-02-13T14:13:28.847Z,54.17
2023-02-13T14:16:02.294Z,55.11
2023-02-13T14:18:30.721Z,54.50
2023-02-13T14:21:11.242Z,53.98
2023-02-13T14:23:50.410Z,54.35
2023-02-13T14:26:45.757Z,55.24
2023-02-13T14:29:23.429Z,54.89
2023-02-13T14:32:07.379Z,54.79
2023-02-13T14:34:39.746Z,55.70
2023-02-13T14:37:25.278Z,56.16
2023-02-13T14:40:21.665Z,56.12
2023-02-13T14:43:00.212Z,56.02
2023-02-13T14:45:40.246Z,56.54
2023-02-13T14:48:20.387Z,56.12
2023-02-13T14:50:53.889Z,56.31
2023-02-13T14:53:46.878Z,56.08
2023-02-13T14:56:52.102Z,56.55
2023-02-13T14:59:31.285Z,57.05
2023-02-13T15:02:09.645Z,57.05
2023-02-13T15:05:00.206Z,57.44
2023-02-13T15:07:52.560Z,58.58
2023-02-13T15:10:49.864Z,58.39
2023-02-13T15:13:32.382Z,59.92
2023-02-13T15:16:05.465Z,60.40
2023-02-13T15:18:47.359Z,61.74
2023-02-13T15:21:42.253Z,62.21
2023-02-13T15:24:16.060Z,62.38
2023-02-13T15:26:50.303Z,62.87
2023-02-13T15:29:29.324Z,63.48
2023-02-13T15:32:26.237Z,63.46
2023-02-13T15:34:52.824Z,64.36
2023-02-13T15:37:31.287Z,64.05
2023-02-13T15:40:19.837Z,63.69
2023-02-13T15:42:53.244Z,63.54
2023-02-13T15:45:22.063Z,63.03
2023-02-13T15:47:56.476Z,62.78
2023-02-13T15:50:33.365Z,62.73
2023-02-13T15:53:16.427Z,62.66
2023-02-13T15:55:58.079Z,63.40
2023-02-13T15:58:37.531Z,64.37
2023-02-13T16:01:07.980Z,64.57
2023-02-13T16:03:57.724Z,64.87
2023-02-13T16:06:24.852Z,65.68
2023-02-13T16:09:06.254Z,66.14
2023-02-13T16:14:28.428Z,66.79
2023-02-13T16:17:05.066Z,67.09
2023-02-13T16:19:58.531Z,67.22
2023-02-13T16:22:38.824Z,66.98
2023-02-13T16:25:36.805Z,67.66
2023-02-13T16:28:19.938Z,68.04
2023-02-13T16:31:15.386Z,68.86
2023-02-13T16:33:43.087Z,69.43
2023-02-13T16:36:19.443Z,69.58
2023-02-13T16:38:48.731Z,70.12
2023-02-13T16:41:28.422Z,70.29
2023-02-13T16:44:05.040Z,70.60
2023-02-13T16:47:08.111Z,70.45
2023-02-13T16:49:57.325Z,70.76
2023-02-13T16:52:33.310Z,71.32
2023-02-13T16:55:14.443Z,71.81
2023-02-13T16:57:48.368Z,72.29
2023-02-13T17:00:22.279Z,72.75
2023-02-13T17:02:57.392Z,73.16
2023-02-13T17:05:47.618Z,73.53
2023-02-13T17:08:14.418Z,73.42
2023-02-13T17:10:59.493Z,74.12
2023-02-13T17:13:27.155Z,74.49
2023-02-13T17:16:03.495Z,74.65
2023-02-13T17:18:36.344Z,75.05
2023-02-13T17:21:12.812Z,74.67
2023-02-13T17:23:47.439Z,75.13
2023-02-13T17:26:24.533Z,75.72
2023-02-13T17:28:57.359Z,76.14
2023-02-13T17:31:29.894Z,76.53
2023-02-13T17:34:03.325Z,76.76
2023-02-13T17:36:37.457Z,76.79
2023-02-13T17:39:04.241Z,76.75
2023-02-13T17:41:46.289Z,77.02
2023-02-13T17:44:20.340Z,77.31
2023-02-13T17:46:53.327Z,77.72
2023-02-13T17:49:28.674Z,77.51
2023-02-13T17:52:04.389Z,77.85
2023-02-13T17:54:37.748Z,77.71
2023-02-13T17:57:12.307Z,77.89
2023-02-13T17:59:39.055Z,77.93
2023-02-13T18:02:26.475Z,77.98
2023-02-13T18:04:53.509Z,77.97
2023-02-13T18:07:30.285Z,78.69
2023-02-13T18:09:57.024Z,78.72
2023-02-13T18:12:31.332Z,79.02
2023-02-13T18:14:57.964Z,79.08
2023-02-13T18:17:31.330Z,79.15
2023-02-13T18:20:01.320Z,79.27
2023-02-13T18:22:35.381Z,78.86
2023-02-13T18:25:15.542Z,78.95
2023-02-13T18:27:49.342Z,79.48
2023-02-13T18:30:27.730Z,79.70
2023-02-13T18:33:02.452Z,80.09
2023-02-13T18:35:29.446Z,79.38
2023-02-13T18:38:05.403Z,80.05
2023-02-13T18:40:41.326Z,80.59
2023-02-13T18:43:07.981Z,80.15
2023-02-13T18:45:48.520Z,79.74
2023-02-13T18:48:22.770Z,80.18
2023-02-13T18:51:07.456Z,80.11
2023-02-13T18:53:40.729Z,80.74
2023-02-13T18:56:21.389Z,80.60
2023-02-13T18:58:54.374Z,79.80
2023-02-13T19:01:32.553Z,80.83
2023-02-13T19:04:07.758Z,80.94
2023-02-13T19:06:41.442Z,81.30
2023-02-13T19:09:09.010Z,81.28
2023-02-13T19:11:50.863Z,81.51
2023-02-13T19:14:26.896Z,81.42
2023-02-13T19:17:00.499Z,81.57
2023-02-13T19:19:37.609Z,81.35
2023-02-13T19:22:10.424Z,81.46
2023-02-13T19:25:02.681Z,81.63
2023-02-13T19:27:42.458Z,81.93
2023-02-13T19:30:20.820Z,81.83
2023-02-13T19:32:47.714Z,81.67
2023-02-13T19:35:24.436Z,82.09
2023-02-13T19:37:51.745Z,81.67
2023-02-13T19:40:28.518Z,81.98
2023-02-13T19:42:55.259Z,82.03
2023-02-13T19:45:31.470Z,82.18
2023-02-13T19:48:05.416Z,82.49
2023-02-13T19:50:38.426Z,82.67
2023-02-13T19:53:12.477Z,82.48
2023-02-13T19:55:55.408Z,82.82
2023-02-13T19:58:28.488Z,82.69
2023-02-13T20:01:01.435Z,82.82
2023-02-13T20:03:35.612Z,83.10
2023-02-13T20:06:21.440Z,82.98
2023-02-13T20:08:55.532Z,83.04
2023-02-13T20:11:34.398Z,82.55
2023-02-13T20:14:07.473Z,83.13
2023-02-13T20:16:54.651Z,83.28
2023-02-13T20:19:28.473Z,83.38
2023-02-13T20:22:04.321Z,83.29
2023-02-13T20:24:39.460Z,83.47
2023-02-13T20:27:06.150Z,83.01
2023-02-13T20:29:48.372Z,83.38
2023-02-13T20:32:15.239Z,83.63
2023-02-13T20:34:59.361Z,83.51
2023-02-13T20:37:26.415Z,83.29
2023-02-13T20:40:00.442Z,83.74
2023-02-13T20:42:34.618Z,83.49
2023-02-13T20:45:08.504Z,83.58
2023-02-13T20:47:35.106Z,83.77
2023-02-13T20:50:01.773Z,83.41
2023-02-13T20:52:41.464Z,83.15
2023-02-13T20:55:21.346Z,83.19
2023-02-13T20:57:54.458Z,83.08
2023-02-13T21:00:21.473Z,83.23
2023-02-13T21:05:23.599Z,84.00
2023-02-13T21:07:56.621Z,83.72
2023-02-13T21:10:25.662Z,83.94
2023-02-13T21:12:52.297Z,83.62
2023-02-13T21:15:26.024Z,83.41
2023-02-13T21:17:59.437Z,83.49
2023-02-13T21:20:37.338Z,83.66
2023-02-13T21:23:05.541Z,83.73
2023-02-13T21:25:52.614Z,83.96
2023-02-13T21:28:32.115Z,83.74
2023-02-13T21:31:16.524Z,83.87
2023-02-13T21:33:51.493Z,83.87
2023-02-13T21:36:51.438Z,84.33
2023-02-13T21:39:27.439Z,84.41
2023-02-13T21:42:02.941Z,84.61
2023-02-13T21:44:36.430Z,84.51
2023-02-13T21:47:12.540Z,84.38
2023-02-13T21:52:33.423Z,84.70
2023-02-13T21:55:13.656Z,84.98
2023-02-13T21:57:47.528Z,85.28
2023-02-13T22:00:22.486Z,85.19
2023-02-13T22:03:04.416Z,85.01
2023-02-13T22:05:37.476Z,85.46
2023-02-13T22:08:13.245Z,85.46
2023-02-13T22:10:55.298Z,85.75
2023-02-13T22:13:29.513Z,85.81
2023-02-13T22:16:37.641Z,85.14
2023-02-13T22:19:05.607Z,85.55
2023-02-13T22:21:39.631Z,85.74
2023-02-13T22:24:13.564Z,85.70
2023-02-13T22:26:45.335Z,85.78
2023-02-13T22:29:22.519Z,85.57
2023-02-13T22:31:49.466Z,85.99
2023-02-13T22:34:22.489Z,85.83
2023-02-13T22:36:49.225Z,85.88
2023-02-13T22:39:22.489Z,86.10
2023-02-13T22:41:57.905Z,86.17
2023-02-13T22:44:31.583Z,86.08
2023-02-13T22:46:58.345Z,86.03
2023-02-13T22:49:41.618Z,86.06
2023-02-13T22:52:15.459Z,85.66
2023-02-13T22:54:57.053Z,86.29
2023-02-13T22:57:37.983Z,85.53
2023-02-13T23:00:16.592Z,85.90
2023-02-13T23:02:46.130Z,86.23
2023-02-13T23:05:30.494Z,85.88
2023-02-13T23:07:57.227Z,86.00
2023-02-13T23:10:32.628Z,86.12
2023-02-13T23:12:59.462Z,86.00
2023-02-13T23:15:42.669Z,86.12
2023-02-13T23:18:14.426Z,86.39
2023-02-13T23:20:51.666Z,86.56
2023-02-13T23:23:18.531Z,86.39
2023-02-13T23:25:58.636Z,86.36
2023-02-13T23:28:35.381Z,86.69
2023-02-13T23:31:22.412Z,86.61
2023-02-13T23:33:55.437Z,86.76
2023-02-13T23:36:22.188Z,86.67
2023-02-13T23:38:55.625Z,87.01
2023-02-13T23:41:28.488Z,86.53
2023-02-13T23:43:55.301Z,86.17
2023-02-13T23:46:29.672Z,86.90
2023-02-13T23:51:51.612Z,86.97
2023-02-13T23:54:24.933Z,86.90
2023-02-13T23:59:35.526Z,87.07
